createdAt,value
2019-03-21T00:00:50.125Z,42.93
2019-03-21T00:03:23.183Z,42.74
2019-03-21T00:05:54.807Z,42.57
2019-03-21T00:08:25.627Z,42.50
2019-03-21T00:11:38.600Z,42.39
2019-03-21T00:14:19.515Z,42.42
2019-03-21T00:16:52.748Z,42.49
2019-03-21T00:19:23.769Z,42.51
2019-03-21T00:21:55.063Z,43.05
2019-03-21T00:24:26.938Z,43.03
2019-03-21T00:27:00.759Z,43.45
2019-03-21T00:29:33.967Z,43.50
2019-03-21T00:32:06.487Z,44.08
2019-03-21T00:34:37.527Z,43.41
2019-03-21T00:37:10.680Z,43.45
2019-03-21T00:39:43.129Z,43.89
2019-03-21T00:42:15.270Z,43.74
2019-03-21T00:44:49.414Z,44.87
2019-03-21T00:47:23.390Z,43.88
2019-03-21T00:49:54.123Z,44.13
2019-03-21T00:52:25.619Z,43.83
2019-03-21T00:54:57.566Z,43.58
2019-03-21T00:57:29.916Z,43.25
2019-03-21T01:00:02.377Z,43.51
2019-03-21T01:02:36.553Z,44.02
2019-03-21T01:05:09.415Z,44.12
2019-03-21T01:07:40.663Z,45.56
2019-03-21T01:10:14.680Z,45.25
2019-03-21T01:12:45.496Z,44.01
2019-03-21T01:15:16.229Z,44.47
2019-03-21T01:17:48.585Z,45.35
2019-03-21T01:20:20.121Z,44.94
2019-03-21T01:22:50.956Z,44.39
2019-03-21T01:25:25.081Z,44.58
2019-03-21T01:27:56.523Z,44.87
2019-03-21T01:30:28.445Z,44.60
2019-03-21T01:33:00.150Z,44.41
2019-03-21T01:35:31.221Z,44.77
2019-03-21T01:38:02.812Z,44.59
2019-03-21T01:40:37.049Z,44.59
2019-03-21T01:43:08.580Z,44.67
2019-03-21T01:45:40.182Z,44.40
2019-03-21T01:48:12.958Z,44.20
2019-03-21T01:50:44.655Z,44.11
2019-03-21T01:53:16.596Z,44.08
2019-03-21T01:55:49.194Z,43.91
2019-03-21T01:58:22.100Z,43.91
2019-03-21T02:00:56.469Z,44.16
2019-03-21T02:03:29.295Z,44.27
2019-03-21T02:06:01.535Z,44.31
2019-03-21T02:08:32.560Z,44.39
2019-03-21T02:11:04.752Z,44.77
2019-03-21T02:13:35.950Z,44.97
2019-03-21T02:16:07.616Z,45.70
2019-03-21T02:18:40.406Z,46.03
2019-03-21T02:21:11.532Z,45.92
2019-03-21T02:23:44.381Z,46.03
2019-03-21T02:26:15.912Z,45.81
2019-03-21T02:28:48.931Z,45.96
2019-03-21T02:31:20.028Z,46.13
2019-03-21T02:33:52.544Z,45.82
2019-03-21T02:36:24.365Z,45.99
2019-03-21T02:38:58.824Z,46.57
2019-03-21T02:41:31.112Z,47.12
2019-03-21T02:44:03.760Z,48.29
2019-03-21T02:46:34.903Z,48.24
2019-03-21T02:49:07.234Z,47.62
2019-03-21T02:51:39.191Z,47.49
2019-03-21T02:54:11.555Z,49.02
2019-03-21T02:56:43.750Z,48.42
2019-03-21T02:59:15.777Z,47.34
2019-03-21T03:01:49.254Z,47.10
2019-03-21T03:04:24.758Z,47.44
2019-03-21T03:06:56.917Z,47.28
2019-03-21T03:09:27.800Z,47.57
2019-03-21T03:11:58.877Z,47.85
2019-03-21T03:14:30.806Z,47.58
2019-03-21T03:17:01.780Z,48.16
2019-03-21T03:19:34.734Z,47.67
2019-03-21T03:22:05.950Z,47.51
2019-03-21T03:24:41.409Z,47.43
2019-03-21T03:27:17.305Z,47.10
2019-03-21T03:29:49.844Z,47.10
2019-03-21T03:32:21.840Z,46.98
2019-03-21T03:34:54.931Z,46.69
2019-03-21T03:37:26.087Z,46.75
2019-03-21T03:39:56.922Z,47.22
2019-03-21T03:42:28.379Z,46.78
2019-03-21T03:45:01.378Z,46.72
2019-03-21T03:47:33.273Z,46.34
2019-03-21T03:50:07.241Z,46.21
2019-03-21T03:52:38.389Z,45.92
2019-03-21T03:55:11.079Z,45.73
2019-03-21T03:57:43.072Z,45.43
2019-03-21T04:00:17.326Z,45.56
2019-03-21T04:02:52.809Z,46.09
2019-03-21T04:05:25.435Z,46.31
2019-03-21T04:07:59.510Z,46.04
2019-03-21T04:10:36.431Z,46.59
2019-03-21T04:13:09.439Z,46.85
2019-03-21T04:15:52.319Z,46.97
2019-03-21T04:18:15.889Z,47.40
2019-03-21T04:20:51.482Z,47.11
2019-03-21T04:23:25.188Z,47.65
2019-03-21T04:26:05.958Z,47.39
2019-03-21T04:28:42.024Z,48.60
2019-03-21T04:31:14.977Z,49.74
2019-03-21T04:33:47.991Z,49.64
2019-03-21T04:36:20.377Z,48.81
2019-03-21T04:38:53.928Z,48.65
2019-03-21T04:41:26.188Z,48.47
2019-03-21T04:43:58.974Z,48.76
2019-03-21T04:46:30.834Z,49.61
2019-03-21T04:49:02.084Z,49.65
2019-03-21T04:51:33.680Z,49.54
2019-03-21T04:54:06.475Z,49.20
2019-03-21T04:56:37.157Z,49.84
2019-03-21T04:59:08.371Z,49.58
2019-03-21T05:01:39.475Z,49.51
2019-03-21T05:04:11.357Z,49.77
2019-03-21T05:06:45.476Z,49.14
2019-03-21T05:09:20.305Z,48.48
2019-03-21T05:11:52.658Z,48.21
2019-03-21T05:14:23.729Z,47.63
2019-03-21T05:16:54.965Z,47.85
2019-03-21T05:19:26.357Z,48.14
2019-03-21T05:21:59.262Z,48.53
2019-03-21T05:24:30.456Z,49.03
2019-03-21T05:27:02.653Z,49.75
2019-03-21T05:29:33.602Z,50.64
2019-03-21T05:32:04.912Z,50.52
2019-03-21T05:34:35.644Z,51.37
2019-03-21T05:37:11.977Z,51.45
2019-03-21T05:39:43.376Z,51.30
2019-03-21T05:42:19.344Z,51.71
2019-03-21T05:44:51.281Z,50.31
2019-03-21T05:47:22.496Z,51.23
2019-03-21T05:49:54.536Z,50.91
2019-03-21T05:52:27.553Z,51.99
2019-03-21T05:54:59.042Z,52.10
2019-03-21T05:57:31.476Z,52.49
2019-03-21T06:00:03.332Z,52.96
2019-03-21T06:02:34.568Z,51.98
2019-03-21T06:05:09.398Z,52.46
2019-03-21T06:08:00.833Z,51.57
2019-03-21T06:10:31.548Z,51.51
2019-03-21T06:13:02.417Z,51.54
2019-03-21T06:15:36.813Z,50.76
2019-03-21T06:18:57.168Z,50.00
2019-03-21T06:22:01.951Z,49.76
2019-03-21T06:25:01.418Z,49.42
2019-03-21T06:27:33.929Z,49.10
2019-03-21T06:30:07.086Z,49.40
2019-03-21T06:32:38.166Z,49.36
2019-03-21T06:35:35.646Z,48.23
2019-03-21T06:38:27.253Z,48.35
2019-03-21T06:41:00.090Z,47.34
2019-03-21T06:43:31.660Z,47.32
2019-03-21T06:46:03.197Z,47.11
2019-03-21T06:48:35.180Z,46.49
2019-03-21T06:51:06.479Z,48.28
2019-03-21T06:53:38.321Z,47.76
2019-03-21T06:56:10.863Z,47.51
2019-03-21T06:58:43.487Z,47.04
2019-03-21T07:01:15.371Z,47.67
2019-03-21T07:03:47.225Z,47.67
2019-03-21T07:06:19.896Z,46.93
2019-03-21T07:08:53.412Z,46.92
2019-03-21T07:11:27.467Z,46.56
2019-03-21T07:14:00.454Z,46.89
2019-03-21T07:16:36.826Z,49.27
2019-03-21T07:19:12.878Z,48.62
2019-03-21T07:21:46.557Z,47.86
2019-03-21T07:24:20.974Z,46.47
2019-03-21T07:26:54.202Z,46.41
2019-03-21T07:29:24.940Z,45.88
2019-03-21T07:31:56.154Z,46.67
2019-03-21T07:34:28.989Z,46.60
2019-03-21T07:37:00.237Z,45.50
2019-03-21T07:39:31.556Z,45.86
2019-03-21T07:42:03.747Z,46.38
2019-03-21T07:44:34.909Z,45.21
2019-03-21T07:47:12.655Z,45.43
2019-03-21T07:49:38.461Z,45.06
2019-03-21T07:52:09.554Z,44.08
2019-03-21T07:54:41.527Z,44.14
2019-03-21T07:57:14.110Z,43.65
2019-03-21T08:02:14.884Z,44.67
2019-03-21T08:04:48.692Z,45.67
2019-03-21T08:07:21.475Z,45.61
2019-03-21T08:09:52.924Z,44.47
2019-03-21T08:12:25.742Z,44.63
2019-03-21T08:14:57.939Z,45.08
2019-03-21T08:17:31.075Z,44.13
2019-03-21T08:20:04.361Z,43.42
2019-03-21T08:22:38.829Z,43.85
2019-03-21T08:25:11.158Z,42.53
2019-03-21T08:27:45.963Z,42.94
2019-03-21T08:30:39.960Z,43.94
2019-03-21T08:33:12.824Z,43.44
2019-03-21T08:35:44.032Z,45.32
2019-03-21T08:38:17.674Z,43.45
2019-03-21T08:40:51.501Z,42.96
2019-03-21T08:43:24.018Z,42.01
2019-03-21T08:45:57.047Z,42.27
2019-03-21T08:48:30.343Z,41.32
2019-03-21T08:51:08.192Z,40.32
2019-03-21T08:53:37.433Z,41.32
2019-03-21T08:56:09.402Z,41.87
2019-03-21T08:58:42.909Z,41.20
2019-03-21T09:01:15.284Z,40.97
2019-03-21T09:03:47.832Z,41.50
2019-03-21T09:06:18.832Z,41.21
2019-03-21T09:08:52.636Z,40.91
2019-03-21T09:11:28.350Z,40.48
2019-03-21T09:13:59.575Z,40.93
2019-03-21T09:16:32.511Z,40.51
2019-03-21T09:19:03.598Z,40.55
2019-03-21T09:21:35.105Z,39.36
2019-03-21T09:24:07.335Z,38.45
2019-03-21T09:26:38.958Z,39.20
2019-03-21T09:29:11.730Z,38.52
2019-03-21T09:31:42.901Z,37.70
2019-03-21T09:34:13.787Z,36.87
2019-03-21T09:36:44.597Z,36.17
2019-03-21T09:39:17.744Z,36.34
2019-03-21T09:41:49.599Z,36.44
2019-03-21T09:44:25.336Z,36.43
2019-03-21T09:46:56.789Z,35.60
2019-03-21T09:49:29.539Z,35.17
2019-03-21T09:52:01.540Z,34.54
2019-03-21T09:54:34.251Z,34.92
2019-03-21T09:57:06.169Z,34.15
2019-03-21T09:59:39.139Z,33.85
2019-03-21T10:02:10.760Z,32.90
2019-03-21T10:04:42.016Z,32.18
2019-03-21T10:07:12.895Z,32.40
2019-03-21T10:09:45.837Z,32.59
2019-03-21T10:12:17.558Z,32.45
2019-03-21T10:14:52.094Z,31.58
2019-03-21T10:17:24.159Z,31.83
2019-03-21T10:19:56.031Z,31.49
2019-03-21T10:22:27.634Z,31.37
2019-03-21T10:24:59.281Z,30.57
2019-03-21T10:27:31.391Z,29.98
2019-03-21T10:30:02.685Z,29.81
2019-03-21T10:32:33.481Z,29.41
2019-03-21T10:35:05.876Z,29.52
2019-03-21T10:37:37.134Z,29.43
2019-03-21T10:40:08.459Z,29.30
2019-03-21T10:42:40.029Z,28.74
2019-03-21T10:45:12.960Z,28.62
2019-03-21T10:47:43.665Z,28.11
2019-03-21T10:50:18.130Z,28.18
2019-03-21T10:52:48.931Z,27.88
2019-03-21T10:55:20.746Z,27.50
2019-03-21T10:57:52.643Z,26.84
2019-03-21T11:00:24.713Z,27.53
2019-03-21T11:02:55.891Z,27.47
2019-03-21T11:05:28.614Z,26.37
2019-03-21T11:08:00.937Z,26.54
2019-03-21T11:10:33.367Z,27.27
2019-03-21T11:13:04.731Z,26.51
2019-03-21T11:15:38.057Z,25.63
2019-03-21T11:18:08.943Z,25.64
2019-03-21T11:20:43.399Z,25.15
2019-03-21T11:23:16.229Z,24.80
2019-03-21T11:25:49.354Z,25.04
2019-03-21T11:28:22.131Z,25.14
2019-03-21T11:30:55.298Z,24.47
2019-03-21T11:33:26.866Z,25.07
2019-03-21T11:35:58.098Z,24.01
2019-03-21T11:38:29.300Z,23.27
2019-03-21T11:41:00.711Z,23.97
2019-03-21T11:43:33.842Z,23.02
2019-03-21T11:46:07.013Z,22.76
2019-03-21T11:48:38.511Z,22.49
2019-03-21T11:51:10.246Z,23.37
2019-03-21T11:53:41.236Z,22.97
2019-03-21T11:56:13.373Z,23.62
2019-03-21T11:58:47.592Z,24.05
2019-03-21T12:01:21.164Z,22.96
2019-03-21T12:03:52.660Z,22.09
2019-03-21T12:06:24.872Z,21.72
2019-03-21T12:08:57.793Z,22.13
2019-03-21T12:11:30.138Z,21.21
2019-03-21T12:14:01.192Z,20.91
2019-03-21T12:16:33.214Z,21.29
2019-03-21T12:19:08.437Z,20.71
2019-03-21T12:21:40.100Z,20.70
2019-03-21T12:24:12.917Z,21.16
2019-03-21T12:26:46.007Z,21.74
2019-03-21T12:29:17.118Z,22.00
2019-03-21T12:31:49.977Z,20.48
2019-03-21T12:34:21.299Z,20.72
2019-03-21T12:36:52.057Z,20.78
2019-03-21T12:39:24.294Z,19.89
2019-03-21T12:42:06.376Z,18.87
2019-03-21T12:44:37.973Z,19.85
2019-03-21T12:47:10.471Z,18.89
2019-03-21T12:49:41.186Z,17.59
2019-03-21T12:52:12.552Z,15.30
2019-03-21T12:54:44.685Z,14.59
2019-03-21T12:57:16.928Z,14.68
2019-03-21T12:59:47.629Z,14.98
2019-03-21T13:02:31.962Z,12.64
2019-03-21T13:04:55.822Z,12.22
2019-03-21T13:07:26.388Z,11.08
2019-03-21T13:09:59.191Z,10.03
2019-03-21T13:12:33.420Z,9.26
2019-03-21T13:15:04.730Z,9.50
2019-03-21T13:17:36.149Z,9.81
2019-03-21T13:20:07.910Z,9.34
2019-03-21T13:22:40.653Z,9.66
2019-03-21T13:25:12.828Z,10.34
2019-03-21T13:27:44.002Z,9.18
2019-03-21T13:30:14.924Z,8.42
2019-03-21T13:32:47.269Z,8.05
2019-03-21T13:35:19.048Z,7.93
2019-03-21T13:37:54.003Z,8.45
2019-03-21T13:40:26.617Z,8.08
2019-03-21T13:42:58.252Z,8.33
2019-03-21T13:45:30.283Z,7.68
2019-03-21T13:48:02.467Z,7.75
2019-03-21T13:50:33.572Z,7.83
2019-03-21T13:53:17.619Z,7.80
2019-03-21T13:55:40.101Z,7.98
2019-03-21T13:58:11.572Z,8.28
2019-03-21T14:00:43.146Z,7.79
2019-03-21T14:03:25.005Z,8.13
2019-03-21T14:05:52.074Z,8.61
2019-03-21T14:08:23.105Z,8.42
2019-03-21T14:10:55.183Z,8.55
2019-03-21T14:13:28.244Z,8.43
2019-03-21T14:16:00.244Z,8.40
2019-03-21T14:18:35.694Z,8.78
2019-03-21T14:21:07.529Z,9.01
2019-03-21T14:23:43.540Z,7.76
2019-03-21T14:26:12.662Z,7.71
2019-03-21T14:28:46.912Z,8.51
2019-03-21T14:31:17.728Z,7.77
2019-03-21T14:33:50.630Z,7.82
2019-03-21T14:36:23.961Z,8.03
2019-03-21T14:39:23.042Z,8.08
2019-03-21T14:41:53.778Z,8.26
2019-03-21T14:44:24.531Z,8.29
2019-03-21T14:46:58.002Z,8.29
2019-03-21T14:49:29.801Z,8.64
2019-03-21T14:52:00.606Z,8.80
2019-03-21T14:54:32.369Z,8.33
2019-03-21T14:57:03.563Z,8.36
2019-03-21T14:59:34.717Z,8.41
2019-03-21T15:02:08.268Z,8.16
2019-03-21T15:04:42.189Z,8.32
2019-03-21T15:07:13.787Z,8.15
2019-03-21T15:09:45.022Z,9.06
2019-03-21T15:12:16.346Z,9.42
2019-03-21T15:14:49.044Z,10.42
2019-03-21T15:17:21.147Z,10.84
2019-03-21T15:19:54.819Z,11.16
2019-03-21T15:22:26.408Z,11.50
2019-03-21T15:24:57.568Z,11.78
2019-03-21T15:27:31.729Z,12.67
2019-03-21T15:30:03.651Z,13.81
2019-03-21T15:32:35.782Z,14.58
2019-03-21T15:35:10.950Z,15.32
2019-03-21T15:37:44.787Z,15.31
2019-03-21T15:40:17.264Z,16.13
2019-03-21T15:42:49.216Z,16.66
2019-03-21T15:45:23.947Z,17.27
2019-03-21T15:47:58.031Z,17.75
2019-03-21T15:50:38.662Z,18.11
2019-03-21T15:53:09.785Z,18.09
2019-03-21T15:55:40.910Z,19.32
2019-03-21T15:58:12.098Z,19.29
2019-03-21T16:00:47.881Z,19.03
2019-03-21T16:03:20.107Z,19.63
2019-03-21T16:05:54.555Z,20.40
2019-03-21T16:08:27.412Z,21.12
2019-03-21T16:10:58.611Z,20.38
2019-03-21T16:13:30.174Z,21.06
2019-03-21T16:16:02.646Z,20.97
2019-03-21T16:18:37.984Z,21.60
2019-03-21T16:21:17.890Z,22.37
2019-03-21T16:23:49.803Z,22.67
2019-03-21T16:26:21.286Z,22.40
2019-03-21T16:28:53.275Z,22.04
2019-03-21T16:31:24.912Z,23.33
2019-03-21T16:33:56.190Z,23.92
2019-03-21T16:36:27.959Z,24.28
2019-03-21T16:38:59.442Z,24.54
2019-03-21T16:41:30.694Z,25.26
2019-03-21T16:44:01.396Z,24.78
2019-03-21T16:46:32.919Z,24.78
2019-03-21T16:49:05.444Z,24.59
2019-03-21T16:51:38.578Z,24.67
2019-03-21T16:54:17.007Z,24.67
2019-03-21T16:56:43.256Z,25.27
2019-03-21T16:59:16.154Z,25.42
2019-03-21T17:01:48.468Z,25.86
2019-03-21T17:04:19.960Z,25.53
2019-03-21T17:06:51.771Z,25.40
2019-03-21T17:09:23.411Z,25.01
2019-03-21T17:11:54.523Z,25.97
2019-03-21T17:14:28.372Z,26.47
2019-03-21T17:17:00.543Z,26.41
2019-03-21T17:19:31.688Z,26.41
2019-03-21T17:22:03.675Z,26.42
2019-03-21T17:24:34.768Z,26.36
2019-03-21T17:27:06.385Z,26.75
2019-03-21T17:29:37.598Z,27.02
2019-03-21T17:32:09.463Z,27.55
2019-03-21T17:34:40.851Z,27.68
2019-03-21T17:37:15.783Z,28.15
2019-03-21T17:39:49.238Z,27.92
2019-03-21T17:42:21.872Z,28.43
2019-03-21T17:44:56.945Z,28.13
2019-03-21T17:47:29.705Z,28.74
2019-03-21T17:50:01.697Z,28.54
2019-03-21T17:52:34.645Z,28.83
2019-03-21T17:55:07.417Z,28.93
2019-03-21T17:57:44.899Z,28.78
2019-03-21T18:00:22.814Z,28.99
2019-03-21T18:02:55.569Z,29.03
2019-03-21T18:05:27.013Z,29.12
2019-03-21T18:07:59.158Z,29.10
2019-03-21T18:10:32.946Z,29.28
2019-03-21T18:13:04.805Z,29.61
2019-03-21T18:15:36.577Z,29.68
2019-03-21T18:18:10.837Z,29.83
2019-03-21T18:20:42.133Z,29.78
2019-03-21T18:23:14.265Z,30.05
2019-03-21T18:25:46.525Z,30.22
2019-03-21T18:28:17.715Z,30.40
2019-03-21T18:30:48.875Z,30.67
2019-03-21T18:33:19.639Z,30.72
2019-03-21T18:35:52.451Z,30.91
2019-03-21T18:38:24.592Z,31.13
2019-03-21T18:40:56.437Z,31.05
2019-03-21T18:43:27.305Z,31.17
2019-03-21T18:45:58.024Z,31.18
2019-03-21T18:48:29.096Z,31.23
2019-03-21T18:51:02.019Z,31.30
2019-03-21T18:53:37.879Z,31.35
2019-03-21T18:56:11.417Z,31.62
2019-03-21T18:58:42.327Z,31.67
2019-03-21T19:01:15.505Z,31.90
2019-03-21T19:03:46.738Z,31.84
2019-03-21T19:06:19.611Z,31.91
2019-03-21T19:08:51.524Z,31.88
2019-03-21T19:11:23.492Z,32.01
2019-03-21T19:13:54.938Z,32.25
2019-03-21T19:16:26.020Z,32.11
2019-03-21T19:18:58.489Z,32.35
2019-03-21T19:21:29.729Z,32.41
2019-03-21T19:24:05.839Z,32.58
2019-03-21T19:26:37.248Z,32.67
2019-03-21T19:29:10.378Z,32.89
2019-03-21T19:31:42.259Z,33.05
2019-03-21T19:34:13.957Z,32.99
2019-03-21T19:36:44.961Z,33.04
2019-03-21T19:39:21.339Z,33.05
2019-03-21T19:41:53.819Z,33.10
2019-03-21T19:44:25.540Z,33.18
2019-03-21T19:47:01.274Z,33.21
2019-03-21T19:49:31.998Z,33.28
2019-03-21T19:52:05.439Z,33.41
2019-03-21T19:54:37.308Z,33.29
2019-03-21T19:57:09.889Z,33.37
2019-03-21T19:59:42.483Z,33.54
2019-03-21T20:02:14.809Z,33.30
2019-03-21T20:04:48.326Z,33.33
2019-03-21T20:07:19.756Z,33.70
2019-03-21T20:09:51.390Z,33.78
2019-03-21T20:12:23.005Z,33.94
2019-03-21T20:14:57.025Z,34.09
2019-03-21T20:17:27.808Z,34.47
2019-03-21T20:20:00.019Z,34.67
2019-03-21T20:22:33.746Z,34.24
2019-03-21T20:25:07.835Z,34.15
2019-03-21T20:27:40.469Z,33.88
2019-03-21T20:30:14.041Z,33.61
2019-03-21T20:32:47.166Z,34.24
2019-03-21T20:35:19.807Z,34.54
2019-03-21T20:37:50.685Z,34.70
2019-03-21T20:40:23.772Z,34.88
2019-03-21T20:42:58.140Z,35.18
2019-03-21T20:45:30.703Z,35.26
2019-03-21T20:48:02.097Z,34.60
2019-03-21T20:50:33.308Z,34.85
2019-03-21T20:53:05.478Z,35.22
2019-03-21T20:55:39.437Z,35.23
2019-03-21T20:58:12.397Z,35.21
2019-03-21T21:00:44.587Z,35.24
2019-03-21T21:03:17.725Z,35.28
2019-03-21T21:05:49.301Z,35.53
2019-03-21T21:08:20.950Z,35.17
2019-03-21T21:10:54.947Z,35.64
2019-03-21T21:13:28.930Z,35.61
2019-03-21T21:16:03.020Z,35.77
2019-03-21T21:18:36.354Z,35.72
2019-03-21T21:21:08.964Z,35.82
2019-03-21T21:23:39.929Z,36.02
2019-03-21T21:26:13.322Z,36.11
2019-03-21T21:28:44.076Z,36.08
2019-03-21T21:31:14.927Z,36.27
2019-03-21T21:33:46.079Z,36.44
2019-03-21T21:36:22.100Z,36.38
2019-03-21T21:38:53.543Z,36.35
2019-03-21T21:41:25.819Z,36.53
2019-03-21T21:44:04.352Z,36.41
2019-03-21T21:46:36.562Z,36.46
2019-03-21T21:49:08.997Z,36.45
2019-03-21T21:51:41.637Z,36.67
2019-03-21T21:54:13.903Z,36.91
2019-03-21T21:56:46.951Z,37.07
2019-03-21T21:59:18.887Z,37.20
2019-03-21T22:01:52.773Z,37.24
2019-03-21T22:04:26.396Z,37.38
2019-03-21T22:06:59.342Z,37.32
2019-03-21T22:09:32.072Z,37.36
2019-03-21T22:12:06.858Z,37.09
2019-03-21T22:14:38.399Z,37.93
2019-03-21T22:17:09.755Z,37.79
2019-03-21T22:19:43.826Z,37.93
2019-03-21T22:22:19.135Z,38.04
2019-03-21T22:24:50.671Z,38.18
2019-03-21T22:27:25.228Z,38.23
2019-03-21T22:29:57.918Z,38.05
2019-03-21T22:32:29.469Z,38.05
2019-03-21T22:35:00.616Z,38.52
2019-03-21T22:37:31.381Z,38.73
2019-03-21T22:40:03.004Z,38.76
2019-03-21T22:42:34.617Z,38.89
2019-03-21T22:45:08.126Z,39.17
2019-03-21T22:47:40.869Z,39.34
2019-03-21T22:50:15.089Z,39.41
2019-03-21T22:52:47.024Z,39.61
2019-03-21T22:55:18.261Z,39.74
2019-03-21T22:57:50.303Z,39.80
2019-03-21T23:00:29.431Z,39.97
2019-03-21T23:03:03.445Z,40.20
2019-03-21T23:05:34.232Z,40.66
2019-03-21T23:08:07.003Z,40.58
2019-03-21T23:10:39.075Z,40.83
2019-03-21T23:13:11.519Z,41.59
2019-03-21T23:15:42.235Z,41.76
2019-03-21T23:18:13.906Z,41.76
2019-03-21T23:20:44.689Z,41.56
2019-03-21T23:23:17.337Z,41.32
2019-03-21T23:25:48.539Z,41.34
2019-03-21T23:28:20.225Z,41.36
2019-03-21T23:30:51.065Z,41.43
2019-03-21T23:33:23.249Z,41.38
2019-03-21T23:35:54.424Z,41.33
2019-03-21T23:38:29.311Z,41.80
2019-03-21T23:41:03.391Z,41.41
2019-03-21T23:43:36.859Z,41.61
2019-03-21T23:46:08.335Z,42.71
2019-03-21T23:48:40.487Z,43.26
2019-03-21T23:51:12.344Z,43.58
2019-03-21T23:53:44.969Z,43.50
2019-03-21T23:56:17.671Z,43.54
2019-03-21T23:58:51.289Z,43.47
